Time;durP1;ratioP1;P1;durP2;ratioP2;P2;SDS_P1;SDS_P2;PMS_P1;PMS_P2;Temp;Humidity;BMP_temperature;BMP_pressure;BME280_temperature;BME280_humidity;BME280_pressure;Samples;Min_cycle;Max_cycle;Signal;HPM_P1;HPM_P2
2021/05/25 00:01:48;;;;;;;9.00;7.97;;;;;;;13.72;86.05;101296.14;1791875;78;21470;-73
2021/05/25 00:04:15;;;;;;;13.13;8.65;;;;;;;13.79;86.22;101297.48;1819404;77;20873;-73
2021/05/25 00:06:41;;;;;;;8.83;7.90;;;;;;;13.86;86.30;101297.46;1823857;77;21038;-73
2021/05/25 00:09:09;;;;;;;10.63;8.93;;;;;;;13.92;86.42;101304.99;1817963;78;20937;-71
2021/05/25 00:11:35;;;;;;;13.80;9.13;;;;;;;14.03;86.64;101310.91;1815423;78;21474;-72
2021/05/25 00:14:04;;;;;;;25.80;9.65;;;;;;;14.03;86.64;101310.91;1840620;77;21663;-71
2021/05/25 00:16:31;;;;;;;10.25;9.35;;;;;;;14.07;86.44;101313.70;1808841;78;21012;-72
2021/05/25 00:18:59;;;;;;;11.73;9.28;;;;;;;14.13;86.65;101325.19;1804399;78;20972;-72
2021/05/25 00:21:27;;;;;;;12.23;9.80;;;;;;;14.20;86.53;101330.92;1814067;78;21545;-72
2021/05/25 00:23:54;;;;;;;10.55;9.50;;;;;;;14.27;86.57;101334.85;1819470;78;20942;-72
2021/05/25 00:26:22;;;;;;;11.30;10.20;;;;;;;14.32;86.21;101330.15;1807543;78;21441;-73
2021/05/25 00:28:50;;;;;;;15.23;10.95;;;;;;;14.36;86.15;101335.61;1799886;78;21004;-73
2021/05/25 00:31:16;;;;;;;10.43;8.90;;;;;;;14.41;86.11;101339.27;1791915;78;21057;-72
2021/05/25 00:33:44;;;;;;;11.57;9.63;;;;;;;14.47;86.01;101335.76;1794490;78;20933;-72
2021/05/25 00:36:11;;;;;;;14.05;10.63;;;;;;;14.54;85.75;101338.84;1817381;78;20989;-72
2021/05/25 00:38:38;;;;;;;16.37;9.78;;;;;;;14.59;85.62;101339.41;1809572;78;21049;-73
2021/05/25 00:41:05;;;;;;;15.75;10.60;;;;;;;14.64;85.43;101338.63;1812524;78;21005;-72
2021/05/25 00:43:33;;;;;;;17.02;10.60;;;;;;;14.68;85.22;101341.92;1806262;78;21851;-73
2021/05/25 00:46:00;;;;;;;15.83;11.22;;;;;;;14.70;84.91;101341.36;1816186;77;20906;-73
2021/05/25 00:48:27;;;;;;;16.65;10.38;;;;;;;14.69;84.59;101349.72;1796050;78;20970;-72
2021/05/25 00:50:55;;;;;;;11.80;10.35;;;;;;;14.69;84.42;101351.05;1819595;77;20973;-72
2021/05/25 00:53:22;;;;;;;13.70;11.28;;;;;;;14.70;84.49;101357.20;1809540;78;21415;-70
2021/05/25 00:55:49;;;;;;;14.53;10.45;;;;;;;14.72;84.39;101361.91;1819515;77;21124;-71
2021/05/25 00:58:17;;;;;;;13.80;12.35;;;;;;;14.74;84.27;101362.66;1827329;78;21037;-72
2021/05/25 01:00:46;;;;;;;22.02;12.07;;;;;;;14.77;84.34;101374.32;1796325;78;20877;-71
2021/05/25 01:03:19;;;;;;;14.15;11.95;;;;;;;14.77;84.34;101374.32;1788737;78;21043;-71
2021/05/25 01:05:47;;;;;;;16.57;13.03;;;;;;;14.80;84.08;101375.43;1805117;78;20882;-72
2021/05/25 01:08:14;;;;;;;16.27;13.13;;;;;;;14.83;83.79;101376.56;1805523;78;21022;-72
2021/05/25 01:10:52;;;;;;;15.85;13.85;;;;;;;14.86;83.68;101374.19;1818840;78;20941;-72
2021/05/25 01:13:26;;;;;;;15.28;12.98;;;;;;;14.88;83.38;101376.26;1805718;78;21028;-72
2021/05/25 01:15:52;;;;;;;17.77;13.72;;;;;;;14.94;83.26;101382.47;1822324;77;20869;-73
2021/05/25 01:18:20;;;;;;;16.75;14.43;;;;;;;14.94;83.26;101382.47;1816505;78;20889;-72
2021/05/25 01:20:49;;;;;;;20.97;14.38;;;;;;;14.99;82.56;101383.48;1821369;78;20960;-73
2021/05/25 01:23:17;;;;;;;17.32;14.25;;;;;;;14.99;82.56;101383.48;1791428;78;21032;-72
2021/05/25 01:25:47;;;;;;;18.48;12.75;;;;;;;15.00;82.51;101387.80;1801500;78;21085;-72
2021/05/25 01:28:15;;;;;;;16.85;13.85;;;;;;;15.02;82.48;101389.87;1804254;78;21036;-72
2021/05/25 01:30:46;;;;;;;16.93;14.03;;;;;;;15.04;82.37;101383.53;1791800;78;21541;-71
2021/05/25 01:33:13;;;;;;;17.27;13.40;;;;;;;15.03;82.32;101380.98;1794054;78;21073;-73
2021/05/25 01:35:40;;;;;;;16.27;14.23;;;;;;;15.07;82.22;101385.11;1796621;78;20957;-73
2021/05/25 01:38:09;;;;;;;14.33;12.70;;;;;;;15.06;82.15;101386.08;1808725;78;20984;-73
2021/05/25 01:40:36;;;;;;;15.35;13.22;;;;;;;15.13;81.82;101386.88;1795995;78;20921;-73
2021/05/25 01:43:03;;;;;;;13.43;12.03;;;;;;;15.13;81.82;101386.88;1808372;78;21326;-73
2021/05/25 01:45:31;;;;;;;16.90;11.63;;;;;;;15.14;81.53;101393.03;1792470;78;21124;-74
2021/05/25 01:48:01;;;;;;;12.25;11.05;;;;;;;15.12;81.32;101390.96;1793628;78;20980;-74
2021/05/25 01:50:29;;;;;;;12.55;11.28;;;;;;;15.13;81.06;101388.67;1817742;77;20913;-73
2021/05/25 01:53:04;;;;;;;11.38;10.25;;;;;;;15.11;80.88;101394.53;1803520;78;21470;-73
2021/05/25 01:55:43;;;;;;;13.35;11.70;;;;;;;15.09;80.93;101399.07;1818750;77;20978;-74
2021/05/25 01:58:17;;;;;;;13.13;11.65;;;;;;;15.09;81.00;101396.43;1818153;78;21637;-73
2021/05/25 02:00:49;;;;;;;16.82;13.10;;;;;;;15.10;81.06;101398.14;1818222;78;22813;-72
2021/05/25 02:03:18;;;;;;;14.85;12.10;;;;;;;15.05;80.91;101401.09;1821914;78;21016;-73
2021/05/25 02:05:48;;;;;;;13.65;12.23;;;;;;;15.02;80.88;101406.55;1818576;78;20997;-73
2021/05/25 02:08:15;;;;;;;15.18;12.98;;;;;;;14.98;80.92;101402.42;1815813;78;21394;-75
2021/05/25 02:10:50;;;;;;;16.02;12.33;;;;;;;14.96;80.93;101406.11;1815903;78;21062;-73
2021/05/25 02:13:20;;;;;;;14.63;12.68;;;;;;;14.92;80.96;101400.20;1818424;78;21144;-74
2021/05/25 02:15:49;;;;;;;15.83;11.97;;;;;;;14.87;80.95;101408.44;1811878;78;20986;-73
2021/05/25 02:18:21;;;;;;;18.30;14.18;;;;;;;14.81;80.96;101411.47;1807131;78;20965;-74
2021/05/25 02:20:50;;;;;;;16.42;14.15;;;;;;;14.78;81.29;101418.25;1802288;78;21545;-73
2021/05/25 02:23:17;;;;;;;16.40;14.58;;;;;;;14.76;81.40;101417.50;1819715;77;21086;-73
2021/05/25 02:25:44;;;;;;;15.55;13.30;;;;;;;14.75;81.40;101424.22;1818110;78;20889;-74
2021/05/25 02:28:12;;;;;;;15.75;13.80;;;;;;;14.75;81.43;101422.90;1843051;77;20965;-73
2021/05/25 02:30:41;;;;;;;18.62;14.47;;;;;;;14.74;81.41;101433.94;1803692;78;21549;-75
2021/05/25 02:33:15;;;;;;;19.20;14.75;;;;;;;14.74;81.52;101433.94;1817659;77;21051;-75
2021/05/25 02:35:42;;;;;;;20.80;13.55;;;;;;;14.74;81.52;101433.94;1801673;78;21074;-74
2021/05/25 02:38:12;;;;;;;17.25;13.00;;;;;;;14.76;81.47;101433.34;1817873;78;20977;-74
2021/05/25 02:40:40;;;;;;;15.63;13.98;;;;;;;14.67;81.08;101430.85;1807398;78;21091;-74
2021/05/25 02:43:07;;;;;;;17.35;13.75;;;;;;;14.67;81.08;101430.85;1821115;78;21013;-74
2021/05/25 02:45:34;;;;;;;15.38;13.72;;;;;;;14.67;81.37;101437.45;1808571;78;21747;-74
2021/05/25 02:48:02;;;;;;;16.40;13.32;;;;;;;14.67;81.64;101437.90;1798350;78;20946;-74
2021/05/25 02:50:29;;;;;;;15.98;13.85;;;;;;;14.67;81.64;101437.90;1804387;78;20861;-73
2021/05/25 02:52:56;;;;;;;16.30;13.70;;;;;;;14.70;81.59;101434.59;1797585;78;21091;-75
2021/05/25 02:55:29;;;;;;;14.90;13.30;;;;;;;14.71;81.43;101437.59;1819087;77;20909;-75
2021/05/25 02:57:56;;;;;;;14.05;12.50;;;;;;;14.71;81.43;101437.59;1812080;78;20851;-74
2021/05/25 03:00:30;;;;;;;16.00;12.37;;;;;;;14.72;81.21;101439.80;1821137;78;21029;-75
2021/05/25 03:02:57;;;;;;;14.33;11.63;;;;;;;14.70;81.04;101438.56;1813742;78;20924;-74
2021/05/25 03:05:24;;;;;;;13.70;12.20;;;;;;;14.70;81.04;101438.56;1813368;78;20928;-73
2021/05/25 03:07:53;;;;;;;13.98;12.33;;;;;;;14.74;81.08;101444.95;1789928;78;20917;-74
2021/05/25 03:10:22;;;;;;;12.88;11.53;;;;;;;14.73;81.02;101450.71;1818943;77;20926;-73
2021/05/25 03:12:49;;;;;;;14.25;12.68;;;;;;;14.78;81.02;101449.94;1805665;78;21461;-74
2021/05/25 03:15:20;;;;;;;14.70;12.45;;;;;;;14.84;80.96;101450.03;1789216;78;20854;-73
2021/05/25 03:17:47;;;;;;;17.02;11.90;;;;;;;14.89;80.84;101454.53;1821983;78;21016;-73
2021/05/25 03:20:15;;;;;;;15.38;11.65;;;;;;;14.96;80.82;101461.09;1809045;78;20988;-74
2021/05/25 03:22:42;;;;;;;14.50;11.50;;;;;;;15.03;80.47;101459.78;1799167;78;20890;-74
2021/05/25 03:25:10;;;;;;;13.48;11.33;;;;;;;15.07;80.23;101458.64;1796429;78;21653;-73
2021/05/25 03:27:37;;;;;;;13.03;11.80;;;;;;;15.11;79.98;101463.22;1818637;77;21024;-73
2021/05/25 03:30:11;;;;;;;12.68;10.82;;;;;;;15.12;79.63;101458.33;1798672;78;20911;-73
2021/05/25 03:32:38;;;;;;;14.58;11.83;;;;;;;15.13;79.48;101463.97;1814247;78;21120;-73
2021/05/25 03:35:08;;;;;;;12.60;11.05;;;;;;;15.12;79.32;101464.94;1799484;78;21013;-74
2021/05/25 03:37:35;;;;;;;10.95;9.95;;;;;;;15.09;79.24;101459.35;1807999;78;21068;-75
2021/05/25 03:40:07;;;;;;;11.80;10.60;;;;;;;15.06;78.91;101456.92;1800506;78;21010;-73
2021/05/25 03:42:34;;;;;;;10.72;9.68;;;;;;;15.02;78.73;101455.91;1798428;78;21379;-73
2021/05/25 03:45:01;;;;;;;12.55;11.25;;;;;;;15.02;78.87;101454.58;1800372;78;20962;-74
2021/05/25 03:47:28;;;;;;;12.30;10.68;;;;;;;15.07;78.63;101457.77;1820551;77;21461;-75
2021/05/25 03:50:06;;;;;;;13.95;11.03;;;;;;;15.10;78.45;101456.27;1805221;78;21579;-73
2021/05/25 03:52:23;;;;;;;11.65;10.43;;;;;;;15.21;78.21;101466.97;1816447;78;21001;-75
2021/05/25 03:54:55;;;;;;;12.70;11.40;;;;;;;15.21;78.21;101466.97;1794084;78;21037;-74
2021/05/25 03:59:56;;;;;;;11.53;10.32;;;;;;;15.46;77.95;101466.17;1802490;78;21409;-74
2021/05/25 04:02:23;;;;;;;12.00;10.80;;;;;;;15.62;77.63;101467.78;1805367;78;21067;-74
2021/05/25 04:04:50;;;;;;;10.30;9.40;;;;;;;15.73;77.27;101477.19;1796778;78;21484;-74
2021/05/25 04:07:17;;;;;;;11.95;10.88;;;;;;;16.05;76.17;101484.25;1820861;77;20869;-75
2021/05/25 04:09:44;;;;;;;11.05;9.90;;;;;;;16.05;76.17;101484.25;1788491;78;20985;-76
2021/05/25 04:12:12;;;;;;;13.18;9.33;;;;;;;16.23;76.21;101487.42;1812959;78;21064;-74
2021/05/25 04:14:39;;;;;;;11.35;10.15;;;;;;;16.45;75.43;101500.45;1764784;78;21730;-74
2021/05/25 04:17:07;;;;;;;11.05;9.85;;;;;;;16.58;74.62;101499.48;1818255;77;20961;-75
2021/05/25 04:19:34;;;;;;;11.53;10.43;;;;;;;16.72;73.94;101498.50;1817570;78;20988;-74
2021/05/25 04:22:02;;;;;;;11.08;9.90;;;;;;;16.92;73.78;101498.90;1809831;78;20913;-76
2021/05/25 04:24:29;;;;;;;11.08;9.88;;;;;;;17.26;73.51;101495.92;1797409;78;21520;-74
2021/05/25 04:26:56;;;;;;;10.63;9.23;;;;;;;17.65;72.73;101493.88;1789452;78;21826;-74
2021/05/25 04:29:25;;;;;;;9.00;8.25;;;;;;;18.09;70.96;101494.95;1819562;77;20879;-77
2021/05/25 04:31:54;;;;;;;9.60;8.28;;;;;;;18.45;69.81;101507.63;1814237;78;20987;-74
2021/05/25 04:34:21;;;;;;;10.05;9.10;;;;;;;18.65;68.18;101498.08;1799411;78;20973;-75
2021/05/25 04:36:48;;;;;;;10.95;9.45;;;;;;;18.77;67.35;101502.91;1797225;78;20995;-75
2021/05/25 04:39:16;;;;;;;11.50;10.38;;;;;;;18.76;67.10;101505.19;1830789;77;21637;-73
2021/05/25 04:41:43;;;;;;;11.83;10.03;;;;;;;18.74;67.30;101505.80;1819885;78;20894;-75
2021/05/25 04:44:10;;;;;;;15.40;10.53;;;;;;;18.72;67.28;101511.25;1804892;78;20895;-69
2021/05/25 04:46:37;;;;;;;11.03;9.98;;;;;;;18.68;67.38;101512.95;1796842;78;20898;-74
2021/05/25 04:49:04;;;;;;;14.73;10.90;;;;;;;18.62;67.76;101513.78;1847217;77;20910;-74
2021/05/25 04:51:31;;;;;;;10.38;9.45;;;;;;;18.59;67.88;101511.87;1806509;78;21650;-73
2021/05/25 04:53:57;;;;;;;17.15;9.73;;;;;;;18.56;67.74;101520.91;1789144;78;20988;-74
2021/05/25 04:56:24;;;;;;;10.23;9.05;;;;;;;18.56;67.77;101520.06;1820520;77;20870;-74
2021/05/25 04:58:51;;;;;;;9.50;8.70;;;;;;;18.53;67.52;101524.31;1821593;77;20980;-74
2021/05/25 05:01:19;;;;;;;9.53;8.50;;;;;;;18.47;67.48;101525.63;1808573;78;21025;-74
2021/05/25 05:03:45;;;;;;;7.22;6.62;;;;;;;18.41;67.62;101528.30;1794444;78;21570;-74
2021/05/25 05:06:12;;;;;;;7.17;6.53;;;;;;;18.41;66.91;101518.16;1809345;78;20914;-75
2021/05/25 05:08:43;;;;;;;6.97;6.28;;;;;;;18.53;66.63;101522.48;1817731;77;20877;-72
2021/05/25 05:11:11;;;;;;;6.28;5.67;;;;;;;18.91;66.74;101523.92;1803089;78;20973;-72
2021/05/25 05:13:38;;;;;;;11.25;6.90;;;;;;;19.51;65.22;101523.48;1815569;78;21072;-75
2021/05/25 05:16:07;;;;;;;6.53;6.00;;;;;;;19.95;63.81;101514.44;1805469;78;22447;-72
2021/05/25 05:18:34;;;;;;;6.35;5.25;;;;;;;20.29;62.12;101515.02;1794366;78;20888;-72
2021/05/25 05:21:01;;;;;;;7.00;5.45;;;;;;;20.61;61.73;101512.74;1808736;78;21112;-73
2021/05/25 05:23:29;;;;;;;5.78;5.28;;;;;;;20.97;61.35;101513.60;1808257;78;21033;-73
2021/05/25 05:25:55;;;;;;;6.65;5.22;;;;;;;21.42;59.66;101511.75;1806364;78;21001;-72
2021/05/25 05:28:22;;;;;;;4.92;3.98;;;;;;;21.79;58.68;101515.87;1809662;78;23510;-74
2021/05/25 05:30:49;;;;;;;5.12;4.62;;;;;;;22.02;56.81;101518.20;1798597;78;21001;-72
2021/05/25 05:33:17;;;;;;;7.03;4.72;;;;;;;22.10;55.40;101516.99;1787773;78;20949;-72
2021/05/25 05:35:44;;;;;;;6.65;4.50;;;;;;;22.07;55.62;101527.95;1794447;78;21006;-70
2021/05/25 05:38:12;;;;;;;5.47;4.90;;;;;;;22.01;56.01;101524.05;1801333;78;20989;-72
2021/05/25 05:40:38;;;;;;;7.15;4.22;;;;;;;21.94;55.74;101518.44;1819318;77;21014;-69
2021/05/25 05:43:06;;;;;;;4.12;3.72;;;;;;;21.96;56.17;101527.62;1831821;77;20993;-72
2021/05/25 05:45:34;;;;;;;3.92;3.62;;;;;;;22.02;56.28;101524.87;1817764;78;20913;-75
2021/05/25 05:48:00;;;;;;;4.40;3.45;;;;;;;22.17;56.19;101526.10;1804219;78;21103;-72
2021/05/25 05:50:27;;;;;;;5.60;3.55;;;;;;;22.49;55.64;101517.69;1835734;77;21510;-67
2021/05/25 05:52:57;;;;;;;6.03;2.87;;;;;;;22.93;54.92;101511.68;1794704;78;21054;-70
2021/05/25 05:55:26;;;;;;;3.27;2.70;;;;;;;23.44;54.35;101502.16;1822475;77;20904;-68
2021/05/25 05:57:53;;;;;;;3.60;3.02;;;;;;;23.77;53.20;101504.62;1805130;78;20911;-70
2021/05/25 06:00:21;;;;;;;4.92;2.72;;;;;;;24.15;52.12;101505.18;1819172;77;20992;-69
2021/05/25 06:02:48;;;;;;;3.75;2.83;;;;;;;24.38;49.91;101497.41;1793731;78;20949;-69
2021/05/25 06:05:15;;;;;;;3.87;2.52;;;;;;;24.39;49.99;101499.09;1820598;77;21694;-69
2021/05/25 06:07:42;;;;;;;2.40;2.08;;;;;;;24.56;49.80;101497.84;1807435;78;20886;-69
2021/05/25 06:10:11;;;;;;;3.22;2.00;;;;;;;24.79;49.51;101497.59;1813455;78;21486;-68
2021/05/25 06:12:38;;;;;;;3.47;2.00;;;;;;;25.07;48.79;101494.61;1796343;78;21521;-71
2021/05/25 06:15:06;;;;;;;1.80;1.67;;;;;;;25.24;48.04;101483.42;1786550;78;20996;-69
2021/05/25 06:17:38;;;;;;;3.42;2.45;;;;;;;25.46;46.46;101491.31;1817591;77;21072;-69
2021/05/25 06:20:10;;;;;;;2.25;2.15;;;;;;;25.51;45.54;101490.80;1788401;78;20850;-68
2021/05/25 06:22:36;;;;;;;2.85;2.00;;;;;;;25.51;45.56;101488.95;1820386;77;20845;-68
2021/05/25 06:25:06;;;;;;;3.12;1.80;;;;;;;25.73;46.33;101495.48;1805603;78;20941;-69
2021/05/25 06:27:33;;;;;;;4.65;1.60;;;;;;;26.14;46.71;101496.75;1803883;78;21039;-68
2021/05/25 06:30:00;;;;;;;3.00;2.15;;;;;;;26.59;45.52;101499.30;1803482;78;21058;-68
2021/05/25 06:32:27;;;;;;;1.80;1.47;;;;;;;26.95;44.05;101502.79;1809814;78;20953;-68
2021/05/25 06:34:54;;;;;;;2.47;1.70;;;;;;;27.13;43.62;101489.03;1796426;78;21525;-68
2021/05/25 06:37:22;;;;;;;2.45;1.57;;;;;;;27.38;43.37;101490.21;1816300;77;20954;-68
2021/05/25 06:39:48;;;;;;;1.85;1.30;;;;;;;27.66;42.85;101489.12;1788523;78;20981;-69
2021/05/25 06:42:15;;;;;;;4.72;1.72;;;;;;;27.71;41.96;101485.35;1819719;77;21374;-71
2021/05/25 06:44:44;;;;;;;2.33;2.10;;;;;;;27.83;40.87;101478.47;1796140;78;20865;-69
2021/05/25 06:47:11;;;;;;;3.45;1.98;;;;;;;27.76;40.73;101477.55;1820816;77;21008;-68
2021/05/25 06:49:39;;;;;;;6.42;2.08;;;;;;;27.73;41.09;101471.19;1808351;78;21136;-69
2021/05/25 06:52:07;;;;;;;1.55;1.47;;;;;;;27.94;41.23;101474.52;1803638;78;20981;-72
2021/05/25 06:54:34;;;;;;;5.15;1.62;;;;;;;28.31;40.88;101471.39;1817547;77;21869;-70
2021/05/25 06:57:01;;;;;;;3.17;2.00;;;;;;;28.54;40.25;101466.39;1831292;77;20878;-68
2021/05/25 06:59:28;;;;;;;3.83;1.95;;;;;;;28.86;39.65;101466.45;1791698;78;21454;-70
2021/05/25 07:01:56;;;;;;;4.55;1.70;;;;;;;29.22;39.10;101469.61;1807791;78;20976;-70
2021/05/25 07:04:22;;;;;;;3.77;1.72;;;;;;;29.55;38.21;101457.72;1797549;78;20898;-69
2021/05/25 07:06:49;;;;;;;1.98;1.00;;;;;;;29.86;38.01;101457.81;1798957;78;21025;-69
2021/05/25 07:09:16;;;;;;;3.70;1.45;;;;;;;30.07;37.31;101455.55;1803336;78;21546;-69
2021/05/25 07:11:45;;;;;;;1.85;1.20;;;;;;;30.03;37.52;101453.75;1820290;77;20897;-68
2021/05/25 07:14:12;;;;;;;3.75;1.27;;;;;;;29.90;36.51;101453.68;1788622;79;21036;-69
2021/05/25 07:16:40;;;;;;;0.90;0.90;;;;;;;29.84;37.01;101446.39;1822183;77;20965;-69
2021/05/25 07:19:06;;;;;;;2.40;1.80;;;;;;;29.83;36.69;101445.53;1822162;77;21061;-69
2021/05/25 07:21:33;;;;;;;1.65;1.07;;;;;;;29.95;37.00;101445.30;1817700;78;20945;-71
2021/05/25 07:24:00;;;;;;;0.65;0.65;;;;;;;30.19;37.40;101448.52;1802590;78;20925;-70
2021/05/25 07:26:27;;;;;;;1.87;0.60;;;;;;;30.39;35.21;101445.09;1828403;77;20921;-68
2021/05/25 07:28:54;;;;;;;0.82;0.68;;;;;;;30.26;35.50;101445.34;1818492;78;20957;-69
2021/05/25 07:31:22;;;;;;;2.75;2.22;;;;;;;30.14;35.44;101446.41;1810781;78;21577;-69
2021/05/25 07:33:50;;;;;;;2.80;0.60;;;;;;;30.22;36.43;101441.36;1822513;77;21398;-68
2021/05/25 07:36:16;;;;;;;1.90;0.65;;;;;;;30.49;36.00;101446.91;1803473;78;20898;-69
2021/05/25 07:38:46;;;;;;;3.80;0.80;;;;;;;30.56;36.38;101449.92;1813194;78;21375;-69
2021/05/25 07:41:13;;;;;;;3.02;1.00;;;;;;;30.67;35.78;101447.67;1787019;78;20997;-74
2021/05/25 07:43:40;;;;;;;2.87;0.70;;;;;;;30.66;34.86;101441.93;1804637;78;21021;-68
2021/05/25 07:46:07;;;;;;;4.25;1.40;;;;;;;30.82;35.41;101437.50;1817304;77;20936;-70
2021/05/25 07:48:35;;;;;;;4.53;0.55;;;;;;;30.91;34.46;101436.28;1821225;78;21015;-70
2021/05/25 07:51:02;;;;;;;3.80;0.70;;;;;;;30.97;34.79;101435.95;1818580;78;20882;-68
2021/05/25 07:53:28;;;;;;;3.58;0.98;;;;;;;31.12;33.84;101433.89;1808787;78;21456;-68
2021/05/25 07:55:55;;;;;;;3.98;0.93;;;;;;;31.20;34.48;101430.15;1807324;78;21082;-73
2021/05/25 07:58:24;;;;;;;1.85;0.68;;;;;;;31.36;34.32;101429.70;1806347;78;20926;-68
2021/05/25 08:00:53;;;;;;;1.55;0.68;;;;;;;31.18;32.26;101419.50;1796079;78;20951;-69
2021/05/25 08:03:20;;;;;;;5.35;1.35;;;;;;;31.00;33.01;101413.89;1790188;78;21083;-70
2021/05/25 08:05:47;;;;;;;1.02;0.82;;;;;;;30.89;33.52;101415.34;1794047;78;21039;-70
2021/05/25 08:08:14;;;;;;;2.72;0.90;;;;;;;30.81;33.18;101413.31;1799304;78;21059;-69
2021/05/25 08:10:43;;;;;;;5.37;0.70;;;;;;;30.70;34.21;101422.35;1810233;78;21371;-68
2021/05/25 08:13:10;;;;;;;2.20;0.90;;;;;;;30.88;33.70;101420.45;1795795;79;20903;-68
2021/05/25 08:15:39;;;;;;;2.60;0.70;;;;;;;31.05;33.98;101408.67;1801639;78;20921;-69
2021/05/25 08:20:38;;;;;;;2.87;0.78;;;;;;;31.28;33.62;101408.27;1793635;78;21208;-68
2021/05/25 08:23:10;;;;;;;10.32;0.85;;;;;;;31.42;31.51;101417.77;1822043;77;20977;-69
2021/05/25 08:25:37;;;;;;;5.28;0.62;;;;;;;31.57;30.99;101410.20;1845464;77;20976;-69
2021/05/25 08:28:05;;;;;;;3.35;0.72;;;;;;;31.47;29.74;101408.47;1803896;78;21005;-70
2021/05/25 08:30:35;;;;;;;3.08;0.95;;;;;;;31.37;30.59;101406.14;1795037;78;20869;-69
2021/05/25 08:33:03;;;;;;;3.27;1.27;;;;;;;31.59;30.20;101405.40;1807602;78;21873;-70
2021/05/25 08:35:34;;;;;;;4.67;1.00;;;;;;;31.87;30.61;101402.93;1820531;77;20898;-69
2021/05/25 08:37:59;;;;;;;1.27;0.50;;;;;;;31.96;29.83;101407.06;1852036;77;20969;-70
2021/05/25 08:40:28;;;;;;;1.47;0.42;;;;;;;32.06;30.23;101395.78;1790192;78;21036;-70
2021/05/25 08:42:55;;;;;;;0.72;0.50;;;;;;;32.03;29.21;101389.44;1827834;77;20970;-70
2021/05/25 08:45:22;;;;;;;1.90;0.40;;;;;;;31.93;30.40;101392.59;1802698;78;21391;-68
2021/05/25 08:47:50;;;;;;;0.62;0.60;;;;;;;32.07;29.95;101385.25;1831985;77;21023;-71
2021/05/25 08:50:21;;;;;;;1.17;0.50;;;;;;;32.24;29.07;101389.13;1807991;78;20917;-71
2021/05/25 08:52:48;;;;;;;1.65;0.60;;;;;;;32.33;29.06;101387.81;1796559;78;20940;-70
2021/05/25 08:55:15;;;;;;;2.02;0.53;;;;;;;32.49;29.76;101380.20;1796436;78;21372;-68
2021/05/25 08:57:42;;;;;;;1.15;0.70;;;;;;;32.61;28.76;101384.72;1821915;77;21060;-69
2021/05/25 09:00:11;;;;;;;1.00;0.65;;;;;;;32.29;28.75;101385.23;1845867;77;21036;-69
2021/05/25 09:02:38;;;;;;;1.30;0.60;;;;;;;32.15;29.24;101374.97;1813703;78;21481;-68
2021/05/25 09:05:11;;;;;;;2.55;0.53;;;;;;;32.05;29.01;101377.31;1807793;78;21028;-72
2021/05/25 09:07:40;;;;;;;;;;;;;;;32.04;29.49;101379.73;1808984;78;20992;-73
2021/05/25 09:10:15;;;;;;;8.28;2.40;;;;;;;32.10;29.50;101367.16;1790254;78;21039;-72
2021/05/25 09:12:50;;;;;;;4.10;1.45;;;;;;;31.90;30.31;101372.12;1841777;77;21533;-71
2021/05/25 09:15:35;;;;;;;1.55;0.70;;;;;;;31.68;30.63;101371.57;1808084;78;20862;-73
2021/05/25 09:18:17;;;;;;;2.17;0.98;;;;;;;31.69;30.08;101370.55;1813538;78;20937;-69
2021/05/25 09:20:53;;;;;;;2.25;1.35;;;;;;;31.77;30.73;101367.60;1836924;77;21017;-75
2021/05/25 09:23:34;;;;;;;0.70;0.50;;;;;;;31.97;31.30;101370.77;1810847;78;21066;-73
2021/05/25 09:26:12;;;;;;;3.92;0.75;;;;;;;32.05;30.08;101371.06;1796479;78;20989;-73
2021/05/25 09:29:06;;;;;;;2.80;0.85;;;;;;;32.26;30.52;101373.45;1802321;79;20954;-71
2021/05/25 09:31:48;;;;;;;2.45;0.60;;;;;;;32.58;30.37;101376.20;1817440;78;21005;-70
2021/05/25 09:34:22;;;;;;;2.25;0.53;;;;;;;32.98;28.84;101377.24;1806000;78;20905;-72
2021/05/25 09:37:04;;;;;;;3.98;0.70;;;;;;;33.13;28.23;101374.19;1789055;78;20995;-72
2021/05/25 09:39:44;;;;;;;2.25;1.30;;;;;;;33.24;28.87;101373.48;1789267;78;21000;-72
2021/05/25 09:42:17;;;;;;;1.42;0.80;;;;;;;33.42;28.27;101368.05;1804411;78;21457;-78
2021/05/25 09:45:10;;;;;;;;;;;;;;;33.36;28.00;101368.95;1801977;79;20878;-71
2021/05/25 09:47:51;;;;;;;1.95;0.98;;;;;;;33.02;27.98;101371.67;1799501;78;20512;-71
2021/05/25 09:50:17;;;;;;;1.05;0.60;;;;;;;32.34;28.07;101379.97;1791765;78;21085;-72
2021/05/25 09:53:03;;;;;;;2.90;1.42;;;;;;;31.79;29.07;101383.64;1802427;78;21418;-71
2021/05/25 09:55:31;;;;;;;2.77;1.40;;;;;;;31.39;30.17;101385.07;1772169;78;20941;-71
2021/05/25 09:57:59;;;;;;;3.12;2.90;;;;;;;30.90;31.26;101376.36;1819427;77;20897;-73
2021/05/25 10:00:34;;;;;;;2.87;1.70;;;;;;;30.45;31.73;101374.73;1798930;78;20861;-71
2021/05/25 10:03:13;;;;;;;2.40;1.35;;;;;;;30.06;32.20;101373.56;1821259;77;21053;-74
2021/05/25 10:05:51;;;;;;;5.55;1.90;;;;;;;29.68;32.66;101371.78;1818456;78;20961;-71
2021/05/25 10:08:24;;;;;;;1.60;1.50;;;;;;;29.23;33.74;101378.06;1834688;77;20902;-71
2021/05/25 10:10:56;;;;;;;2.33;1.10;;;;;;;29.13;34.33;101379.77;1819002;78;21000;-71
2021/05/25 10:13:27;;;;;;;3.83;1.10;;;;;;;29.15;33.72;101380.41;1793387;78;20870;-71
2021/05/25 10:15:57;;;;;;;3.22;1.50;;;;;;;29.04;34.44;101376.86;1791674;78;20989;-70
2021/05/25 10:21:07;;;;;;;1.77;1.20;;;;;;;28.80;34.88;101382.16;1831140;77;20964;-69
2021/05/25 10:23:35;;;;;;;2.50;1.80;;;;;;;28.83;35.38;101374.48;1794064;78;21450;-70
2021/05/25 10:27:59;;;;;;;2.77;1.50;;;;;;;28.73;35.53;101370.78;1815521;79;22152;-72
2021/05/25 10:30:31;;;;;;;3.25;1.75;;;;;;;28.50;35.58;101380.42;1788791;80;20957;-72
2021/05/25 10:33:11;;;;;;;3.40;2.30;;;;;;;28.29;35.52;101379.02;1788381;80;20996;-70
2021/05/25 10:35:55;;;;;;;6.00;2.25;;;;;;;28.05;36.24;101370.73;1788709;80;20954;-70
2021/05/25 10:38:31;;;;;;;1.92;1.47;;;;;;;27.79;36.41;101369.36;1788650;80;20920;-70
2021/05/25 10:41:04;;;;;;;4.25;1.57;;;;;;;27.46;36.88;101371.08;1788609;80;21013;-69
2021/05/25 10:43:39;;;;;;;3.55;1.82;;;;;;;27.10;38.08;101369.55;1788700;80;20904;-72
2021/05/25 10:46:15;;;;;;;2.42;1.10;;;;;;;26.91;38.62;101362.00;1788675;80;21779;-72
2021/05/25 10:49:12;;;;;;;3.65;1.10;;;;;;;26.83;38.64;101362.37;1788728;80;20898;-70
2021/05/25 10:51:54;;;;;;;2.27;1.25;;;;;;;26.80;38.51;101361.41;1788628;80;20973;-71
2021/05/25 10:54:35;;;;;;;2.60;1.35;;;;;;;26.90;38.68;101359.80;1788655;80;20882;-70
2021/05/25 10:57:35;;;;;;;7.92;1.60;;;;;;;26.88;38.59;101355.13;1788617;80;21270;-71
2021/05/25 11:00:18;;;;;;;2.55;1.40;;;;;;;26.93;39.28;101358.11;1788662;80;21123;-71
2021/05/25 11:02:55;;;;;;;4.65;1.30;;;;;;;27.02;39.36;101357.52;1787931;80;21533;-69
2021/05/25 11:05:37;;;;;;;2.40;1.35;;;;;;;27.06;38.96;101356.98;1788661;80;20878;-69
2021/05/25 11:08:14;;;;;;;3.55;1.35;;;;;;;27.07;38.63;101351.91;1788750;80;21505;-77
2021/05/25 11:10:53;;;;;;;1.32;1.07;;;;;;;26.94;38.34;101338.75;1788697;80;20874;-73
2021/05/25 11:13:22;;;;;;;2.87;1.10;;;;;;;26.82;38.02;101336.49;1787412;80;21082;-76
2021/05/25 11:16:31;;;;;;;4.78;1.20;;;;;;;26.72;38.72;101334.55;1788695;80;20965;-73
2021/05/25 11:19:12;;;;;;;3.92;1.05;;;;;;;26.77;38.53;101332.66;1788747;80;21431;-74
2021/05/25 11:24:43;;;;;;;4.15;1.25;;;;;;;26.96;38.77;101329.98;1792262;77;20890;-77
2021/05/25 11:27:17;;;;;;;3.75;1.15;;;;;;;26.95;38.64;101329.67;1788440;78;21067;-79
2021/05/25 11:29:53;;;;;;;2.72;1.15;;;;;;;26.92;38.98;101330.84;1782533;80;20886;-75
2021/05/25 11:32:26;;;;;;;2.42;1.45;;;;;;;26.80;38.53;101327.77;1782454;80;20958;-77
2021/05/25 11:35:15;;;;;;;10.05;2.45;;;;;;;26.62;39.52;101329.94;1783022;80;20875;-76
2021/05/25 11:37:45;;;;;;;1.50;1.40;;;;;;;26.44;39.72;101324.31;1784377;80;20843;-74
2021/05/25 11:40:17;;;;;;;3.62;1.75;;;;;;;26.27;40.56;101318.72;1782301;80;21163;-77
2021/05/25 11:42:45;;;;;;;2.72;1.92;;;;;;;26.08;40.13;101325.41;1780440;80;20884;-78
2021/05/25 11:45:14;;;;;;;4.20;1.67;;;;;;;25.84;40.19;101331.70;1780530;80;20871;-72